RA727 VNLK-VNLK
Flight info
| Callsign | RA727 |
|---|---|
| Flight time | 0h 1m |
| Altitude | 12500 |
| Route | DCT |
| Aircraft | DA62/L-SDFGRY/C |
Departure
| Time | 2026-04-06 15:44 |
|---|---|
| Airport | Tenzing-Hillary Airport (VNLK) |
Arrival
| Time | 2026-04-06 15:45 |
|---|---|
| Airport | Tenzing-Hillary Airport (VNLK) |
| Time | Latitude | Longitude | Altitude | Speed | Heading |
|---|---|---|---|---|---|
| 2026-04-06 15:28 | 27.68727 | 86.73162 | 9410 ft | 0 kts | 59° |
| 2026-04-06 15:29 | 27.68729 | 86.73167 | 9408 ft | 0 kts | 59° |
| 2026-04-06 15:29 | 27.68731 | 86.73170 | 9409 ft | 2 kts | 47° |
| 2026-04-06 15:29 | 27.68743 | 86.73175 | 9415 ft | 0 kts | 358° |
| 2026-04-06 15:30 | 27.68762 | 86.73161 | 9416 ft | 7 kts | 314° |
| 2026-04-06 15:30 | 27.68689 | 86.72970 | 9324 ft | 68 kts | 240° |
| 2026-04-06 15:30 | 27.68426 | 86.72206 | 9082 ft | 134 kts | 254° |
| 2026-04-06 15:30 | 27.67843 | 86.71396 | 9249 ft | 146 kts | 204° |
| 2026-04-06 15:31 | 27.66817 | 86.71055 | 9247 ft | 168 kts | 192° |
| 2026-04-06 15:31 | 27.65864 | 86.70293 | 9197 ft | 171 kts | 254° |
| 2026-04-06 15:31 | 27.65137 | 86.69634 | 9606 ft | 164 kts | 142° |
| 2026-04-06 15:31 | 27.65733 | 86.70123 | 9246 ft | 182 kts | 343° |
| 2026-04-06 15:32 | 27.66879 | 86.70141 | 9497 ft | 168 kts | 20° |
| 2026-04-06 15:32 | 27.67759 | 86.71035 | 9137 ft | 185 kts | 59° |
| 2026-04-06 15:32 | 27.68324 | 86.72265 | 9074 ft | 171 kts | 63° |
| 2026-04-06 15:32 | 27.68767 | 86.73123 | 9401 ft | 50 kts | 60° |
| 2026-04-06 15:33 | 27.68797 | 86.73190 | 9416 ft | 0 kts | 68° |
| 2026-04-06 15:33 | 27.68795 | 86.73185 | 9418 ft | 3 kts | 56° |
| 2026-04-06 15:33 | 27.68789 | 86.73178 | 9417 ft | 2 kts | 36° |
| 2026-04-06 15:34 | 27.68779 | 86.73173 | 9416 ft | 0 kts | 8° |
| 2026-04-06 15:34 | 27.68784 | 86.73175 | 9417 ft | 2 kts | 20° |
| 2026-04-06 15:34 | 27.68771 | 86.73173 | 9414 ft | 0 kts | 358° |
| 2026-04-06 15:34 | 27.68756 | 86.73179 | 9410 ft | 2 kts | 324° |
| 2026-04-06 15:35 | 27.68746 | 86.73200 | 9410 ft | 0 kts | 274° |
| 2026-04-06 15:36 | 27.68761 | 86.73165 | 9413 ft | 0 kts | 303° |
| 2026-04-06 15:37 | 27.68674 | 86.72958 | 9319 ft | 74 kts | 240° |
| 2026-04-06 15:37 | 27.68309 | 86.72225 | 9225 ft | 128 kts | 233° |
| 2026-04-06 15:37 | 27.67455 | 86.71818 | 9351 ft | 149 kts | 195° |
| 2026-04-06 15:38 | 27.66382 | 86.71472 | 9394 ft | 169 kts | 196° |
| 2026-04-06 15:38 | 27.65416 | 86.70842 | 9403 ft | 169 kts | 271° |
| 2026-04-06 15:38 | 27.66369 | 86.70685 | 9102 ft | 180 kts | 22° |
| 2026-04-06 15:38 | 27.67474 | 86.71099 | 9264 ft | 166 kts | 29° |
| 2026-04-06 15:39 | 27.68247 | 86.72060 | 9091 ft | 165 kts | 62° |
| 2026-04-06 15:39 | 27.68708 | 86.73001 | 9343 ft | 76 kts | 60° |
| 2026-04-06 15:39 | 27.68774 | 86.73137 | 9414 ft | 5 kts | 58° |
| 2026-04-06 15:39 | 27.68795 | 86.73178 | 9419 ft | 0 kts | 63° |
| 2026-04-06 15:40 | 27.68790 | 86.73166 | 9419 ft | 6 kts | 63° |
| 2026-04-06 15:40 | 27.68783 | 86.73151 | 9416 ft | 0 kts | 64° |
| 2026-04-06 15:41 | 27.68783 | 86.73161 | 9418 ft | 3 kts | 108° |
| 2026-04-06 15:41 | 27.68761 | 86.73171 | 9413 ft | 11 kts | 191° |
| 2026-04-06 15:41 | 27.68726 | 86.73153 | 9411 ft | 0 kts | 243° |
| 2026-04-06 15:42 | 27.68727 | 86.73155 | 9410 ft | 0 kts | 243° |
| 2026-04-06 15:42 | 27.68721 | 86.73167 | 9411 ft | 2 kts | 2° |
| 2026-04-06 15:43 | 27.68765 | 86.73162 | 9413 ft | 4 kts | 328° |
| 2026-04-06 15:43 | 27.68737 | 86.73077 | 9379 ft | 44 kts | 239° |
| 2026-04-06 15:43 | 27.68430 | 86.72495 | 9164 ft | 120 kts | 239° |
| 2026-04-06 15:44 | 27.67642 | 86.72052 | 9288 ft | 142 kts | 186° |
| 2026-04-06 15:44 | 27.66695 | 86.71831 | 9760 ft | 127 kts | 227° |
| 2026-04-06 15:44 | 27.66821 | 86.70954 | 9994 ft | 145 kts | 327° |
| 2026-04-06 15:44 | 27.67747 | 86.71057 | 9426 ft | 141 kts | 38° |
| 2026-04-06 15:45 | 27.68229 | 86.72057 | 9153 ft | 157 kts | 63° |
| 2026-04-06 15:45 | 27.68667 | 86.72931 | 9302 ft | 66 kts | 60° |
| 2026-04-06 15:45 | 27.68758 | 86.73113 | 9398 ft | 7 kts | 61° |
| 2026-04-06 15:45 | 27.68785 | 86.73171 | 9417 ft | 0 kts | 65° |
| 2026-04-06 15:46 | 27.68792 | 86.73178 | 9419 ft | 3 kts | 24° |
| 2026-04-06 15:46 | 27.68803 | 86.73178 | 9418 ft | 0 kts | 336° |
| 2026-04-06 15:46 | 27.68796 | 86.73187 | 9416 ft | 0 kts | 284° |
| 2026-04-06 15:46 | 27.68682 | 86.72971 | 9326 ft | 76 kts | 238° |
| 2026-04-06 15:47 | 27.68331 | 86.72260 | 9321 ft | 122 kts | 241° |
| 2026-04-06 15:47 | 27.67634 | 86.71651 | 9467 ft | 141 kts | 191° |
| 2026-04-06 15:47 | 27.66601 | 86.71477 | 9630 ft | 157 kts | 186° |
| 2026-04-06 15:47 | 27.65956 | 86.70888 | 9762 ft | 158 kts | 312° |
| 2026-04-06 15:48 | 27.67038 | 86.70903 | 9273 ft | 149 kts | 20° |
| 2026-04-06 15:48 | 27.67935 | 86.71526 | 9233 ft | 158 kts | 50° |
| 2026-04-06 15:48 | 27.68499 | 86.72607 | 9184 ft | 147 kts | 59° |
| 2026-04-06 15:48 | 27.68771 | 86.73126 | 9405 ft | 0 kts | 62° |
| 2026-04-06 15:49 | 27.68757 | 86.73181 | 9413 ft | 9 kts | 117° |
| 2026-04-06 15:49 | 27.68722 | 86.73172 | 9413 ft | 7 kts | 284° |
| 2026-04-06 15:49 | 27.68759 | 86.73154 | 9416 ft | 6 kts | 322° |
| 2026-04-06 15:49 | 27.68743 | 86.73076 | 9375 ft | 23 kts | 225° |
| 2026-04-06 15:50 | 27.68509 | 86.72632 | 9185 ft | 106 kts | 240° |
| 2026-04-06 15:50 | 27.67893 | 86.71900 | 9029 ft | 152 kts | 197° |
| 2026-04-06 15:50 | 27.67486 | 86.71175 | 9426 ft | 140 kts | 326° |
| 2026-04-06 15:50 | 27.68248 | 86.71764 | 9277 ft | 168 kts | 66° |
| 2026-04-06 15:51 | 27.68824 | 86.72741 | 9705 ft | 143 kts | 336° |
| 2026-04-06 15:51 | 27.69405 | 86.71777 | 9904 ft | 140 kts | 341° |
| 2026-04-06 15:51 | 27.69406 | 86.72496 | 9625 ft | 173 kts | 142° |
| 2026-04-06 15:51 | 27.68424 | 86.73269 | 9823 ft | 152 kts | 198° |
| 2026-04-06 15:52 | 27.68082 | 86.72394 | 10462 ft | 127 kts | 331° |
| 2026-04-06 15:52 | 27.68780 | 86.73077 | 9390 ft | 50 kts | 94° |
| 2026-04-06 15:52 | 27.68728 | 86.73122 | 9398 ft | 0 kts | 5° |
| 2026-04-06 15:52 | 27.68530 | 86.73101 | 9489 ft | 154 kts | 5° |
| 2026-04-06 15:53 | 27.68779 | 86.73143 | 9851 ft | 0 kts | 5° |
| 2026-04-06 15:53 | 27.68883 | 86.73154 | 10360 ft | 176 kts | 5° |
| 2026-04-06 15:53 | 27.69232 | 86.72348 | 9561 ft | 204 kts | 220° |
| 2026-04-06 15:53 | 27.67948 | 86.71600 | 9256 ft | 188 kts | 200° |
| 2026-04-06 15:54 | 27.66924 | 86.71466 | 9223 ft | 147 kts | 250° |
| 2026-04-06 15:54 | 27.67654 | 86.71107 | 9113 ft | 151 kts | 44° |
| 2026-04-06 15:54 | 27.68221 | 86.72067 | 9254 ft | 148 kts | 57° |
| 2026-04-06 15:54 | 27.68676 | 86.72949 | 9342 ft | 100 kts | 69° |
| 2026-04-06 15:55 | 27.68750 | 86.73126 | 9404 ft | 0 kts | 154° |
| 2026-04-06 15:55 | 27.67817 | 86.73584 | 10257 ft | 162 kts | 178° |
| 2026-04-06 15:55 | 27.67447 | 86.72645 | 9609 ft | 181 kts | 292° |
| 2026-04-06 15:56 | 27.68261 | 86.72014 | 9553 ft | 142 kts | 39° |
| 2026-04-06 15:56 | 27.68794 | 86.73009 | 9507 ft | 141 kts | 15° |
| 2026-04-06 15:56 | 27.69185 | 86.72324 | 9456 ft | 158 kts | 244° |
| 2026-04-06 15:56 | 27.68586 | 86.71198 | 9341 ft | 163 kts | 213° |
| 2026-04-06 15:57 | 27.68126 | 86.72009 | 8988 ft | 166 kts | 52° |
| 2026-04-06 15:57 | 27.68665 | 86.72998 | 9605 ft | 120 kts | 53° |
| 2026-04-06 15:57 | 27.69221 | 86.72786 | 9571 ft | 143 kts | 268° |
| 2026-04-06 15:57 | 27.68680 | 86.71731 | 8999 ft | 165 kts | 208° |
| 2026-04-06 15:58 | 27.67762 | 86.71256 | 9228 ft | 141 kts | 184° |
| 2026-04-06 15:58 | 27.66835 | 86.71546 | 9489 ft | 131 kts | 184° |
| 2026-04-06 15:58 | 27.66789 | 86.70892 | 9467 ft | 142 kts | 7° |
| 2026-04-06 15:58 | 27.67748 | 86.71416 | 9236 ft | 164 kts | 37° |
| 2026-04-06 15:59 | 27.68415 | 86.72456 | 9167 ft | 163 kts | 62° |
| 2026-04-06 15:59 | 27.68978 | 86.73676 | 10631 ft | 0 kts | 59° |
| 2026-04-06 15:59 | 27.69056 | 86.74053 | 11350 ft | 25 kts | 130° |
| 2026-04-06 15:59 | 27.68506 | 86.74151 | 10750 ft | 155 kts | 192° |
| 2026-04-06 16:00 | 27.67997 | 86.73006 | 10220 ft | 194 kts | 248° |
| 2026-04-06 16:00 | 27.67169 | 86.71730 | 8933 ft | 234 kts | 227° |
| 2026-04-06 16:00 | 27.66498 | 86.70403 | 9422 ft | 183 kts | 294° |
| 2026-04-06 16:01 | 27.68099 | 86.71778 | 9110 ft | 167 kts | 62° |
| 2026-04-06 16:01 | 27.68621 | 86.72848 | 9257 ft | 108 kts | 60° |
| 2026-04-06 16:01 | 27.68790 | 86.73177 | 9418 ft | 0 kts | 62° |